sensor_id;sensor_type;location;lat;lon;timestamp;temperature;humidity
20345;DHT22;10330;48.816;9.278;2023-12-20T00:02:00;6.40;99.90
20345;DHT22;10330;48.816;9.278;2023-12-20T00:04:26;6.40;99.90
20345;DHT22;10330;48.816;9.278;2023-12-20T00:06:52;6.50;99.90
20345;DHT22;10330;48.816;9.278;2023-12-20T00:09:18;6.50;99.90
20345;DHT22;10330;48.816;9.278;2023-12-20T00:11:45;6.50;99.90
20345;DHT22;10330;48.816;9.278;2023-12-20T00:14:12;6.60;99.90
20345;DHT22;10330;48.816;9.278;2023-12-20T00:16:38;6.60;99.90
20345;DHT22;10330;48.816;9.278;2023-12-20T00:19:04;6.60;99.90
20345;DHT22;10330;48.816;9.278;2023-12-20T00:21:30;6.60;99.90
20345;DHT22;10330;48.816;9.278;2023-12-20T00:23:56;6.60;99.90
20345;DHT22;10330;48.816;9.278;2023-12-20T00:26:22;6.60;99.90
20345;DHT22;10330;48.816;9.278;2023-12-20T00:28:49;6.60;99.90
20345;DHT22;10330;48.816;9.278;2023-12-20T00:31:15;6.60;99.90
20345;DHT22;10330;48.816;9.278;2023-12-20T00:33:41;6.60;99.90
20345;DHT22;10330;48.816;9.278;2023-12-20T00:36:09;6.60;99.90
20345;DHT22;10330;48.816;9.278;2023-12-20T00:38:42;6.60;99.90
20345;DHT22;10330;48.816;9.278;2023-12-20T00:41:08;6.60;99.90
20345;DHT22;10330;48.816;9.278;2023-12-20T00:43:35;6.50;99.90
20345;DHT22;10330;48.816;9.278;2023-12-20T00:46:01;6.50;99.90
20345;DHT22;10330;48.816;9.278;2023-12-20T00:48:27;6.50;99.90
20345;DHT22;10330;48.816;9.278;2023-12-20T00:50:54;6.40;99.90
20345;DHT22;10330;48.816;9.278;2023-12-20T00:53:20;6.40;99.90
20345;DHT22;10330;48.816;9.278;2023-12-20T00:55:46;6.40;99.90
20345;DHT22;10330;48.816;9.278;2023-12-20T00:58:12;6.30;99.90
20345;DHT22;10330;48.816;9.278;2023-12-20T01:00:41;6.30;99.90
20345;DHT22;10330;48.816;9.278;2023-12-20T01:03:08;6.40;99.90
20345;DHT22;10330;48.816;9.278;2023-12-20T01:05:35;6.30;99.90
20345;DHT22;10330;48.816;9.278;2023-12-20T01:08:01;6.40;99.90
20345;DHT22;10330;48.816;9.278;2023-12-20T01:10:29;6.20;99.90
20345;DHT22;10330;48.816;9.278;2023-12-20T01:12:55;6.30;99.90
20345;DHT22;10330;48.816;9.278;2023-12-20T01:15:21;6.20;99.90
20345;DHT22;10330;48.816;9.278;2023-12-20T01:17:47;6.20;99.90
20345;DHT22;10330;48.816;9.278;2023-12-20T01:20:15;6.20;99.90
20345;DHT22;10330;48.816;9.278;2023-12-20T01:22:41;6.10;99.90
20345;DHT22;10330;48.816;9.278;2023-12-20T01:25:08;6.10;99.90
20345;DHT22;10330;48.816;9.278;2023-12-20T01:27:38;6.10;99.90
20345;DHT22;10330;48.816;9.278;2023-12-20T01:30:07;6.00;99.90
20345;DHT22;10330;48.816;9.278;2023-12-20T01:32:34;6.00;99.90
20345;DHT22;10330;48.816;9.278;2023-12-20T01:35:02;6.00;99.90
20345;DHT22;10330;48.816;9.278;2023-12-20T01:37:29;6.00;99.90
20345;DHT22;10330;48.816;9.278;2023-12-20T01:39:58;6.00;99.90
20345;DHT22;10330;48.816;9.278;2023-12-20T01:42:24;6.00;99.90
20345;DHT22;10330;48.816;9.278;2023-12-20T01:44:54;6.00;99.90
20345;DHT22;10330;48.816;9.278;2023-12-20T01:47:20;6.00;99.90
20345;DHT22;10330;48.816;9.278;2023-12-20T01:49:48;6.00;99.90
20345;DHT22;10330;48.816;9.278;2023-12-20T01:52:15;5.90;99.90
20345;DHT22;10330;48.816;9.278;2023-12-20T01:54:42;5.90;99.90
20345;DHT22;10330;48.816;9.278;2023-12-20T01:57:08;5.90;99.90
20345;DHT22;10330;48.816;9.278;2023-12-20T01:59:35;5.90;99.90
20345;DHT22;10330;48.816;9.278;2023-12-20T02:02:03;5.90;99.90
20345;DHT22;10330;48.816;9.278;2023-12-20T02:04:29;5.90;99.90
20345;DHT22;10330;48.816;9.278;2023-12-20T02:06:56;5.80;99.90
20345;DHT22;10330;48.816;9.278;2023-12-20T02:09:23;5.80;99.90
20345;DHT22;10330;48.816;9.278;2023-12-20T02:11:49;5.80;99.90
20345;DHT22;10330;48.816;9.278;2023-12-20T02:14:16;5.80;99.90
20345;DHT22;10330;48.816;9.278;2023-12-20T02:16:42;5.80;99.90
20345;DHT22;10330;48.816;9.278;2023-12-20T02:19:14;5.80;99.90
20345;DHT22;10330;48.816;9.278;2023-12-20T02:21:41;5.80;99.90
20345;DHT22;10330;48.816;9.278;2023-12-20T02:24:07;5.80;99.90
20345;DHT22;10330;48.816;9.278;2023-12-20T02:26:33;5.80;99.90
20345;DHT22;10330;48.816;9.278;2023-12-20T02:29:00;5.80;99.90
20345;DHT22;10330;48.816;9.278;2023-12-20T02:31:27;5.80;99.90
20345;DHT22;10330;48.816;9.278;2023-12-20T02:33:53;5.80;99.90
20345;DHT22;10330;48.816;9.278;2023-12-20T02:36:19;5.70;99.90
20345;DHT22;10330;48.816;9.278;2023-12-20T02:38:45;5.80;99.90
20345;DHT22;10330;48.816;9.278;2023-12-20T02:41:11;5.80;99.90
20345;DHT22;10330;48.816;9.278;2023-12-20T02:43:37;5.80;99.90
20345;DHT22;10330;48.816;9.278;2023-12-20T02:46:04;5.80;99.90
20345;DHT22;10330;48.816;9.278;2023-12-20T02:48:30;5.80;99.90
20345;DHT22;10330;48.816;9.278;2023-12-20T02:50:56;5.70;99.90
20345;DHT22;10330;48.816;9.278;2023-12-20T02:53:22;5.80;99.90
20345;DHT22;10330;48.816;9.278;2023-12-20T02:55:48;5.70;99.90
20345;DHT22;10330;48.816;9.278;2023-12-20T02:58:14;5.70;99.90
20345;DHT22;10330;48.816;9.278;2023-12-20T03:00:41;5.70;99.90
20345;DHT22;10330;48.816;9.278;2023-12-20T03:03:07;5.80;99.90
20345;DHT22;10330;48.816;9.278;2023-12-20T03:05:33;5.80;99.90
20345;DHT22;10330;48.816;9.278;2023-12-20T03:07:59;5.80;99.90
20345;DHT22;10330;48.816;9.278;2023-12-20T03:10:25;5.80;99.90
20345;DHT22;10330;48.816;9.278;2023-12-20T03:12:51;5.70;99.90
20345;DHT22;10330;48.816;9.278;2023-12-20T03:15:17;5.80;99.90
20345;DHT22;10330;48.816;9.278;2023-12-20T03:17:43;5.80;99.90
20345;DHT22;10330;48.816;9.278;2023-12-20T03:20:10;5.80;99.90
20345;DHT22;10330;48.816;9.278;2023-12-20T03:22:36;5.80;99.90
20345;DHT22;10330;48.816;9.278;2023-12-20T03:25:02;5.80;99.90
20345;DHT22;10330;48.816;9.278;2023-12-20T03:27:28;5.90;99.90
20345;DHT22;10330;48.816;9.278;2023-12-20T03:29:55;5.90;99.90
20345;DHT22;10330;48.816;9.278;2023-12-20T03:32:21;5.80;99.90
20345;DHT22;10330;48.816;9.278;2023-12-20T03:34:47;5.80;99.90
20345;DHT22;10330;48.816;9.278;2023-12-20T03:37:14;5.80;99.90
20345;DHT22;10330;48.816;9.278;2023-12-20T03:39:40;5.90;99.90
20345;DHT22;10330;48.816;9.278;2023-12-20T03:42:06;5.80;99.90
20345;DHT22;10330;48.816;9.278;2023-12-20T03:44:32;5.80;99.90
20345;DHT22;10330;48.816;9.278;2023-12-20T03:46:58;5.80;99.90
20345;DHT22;10330;48.816;9.278;2023-12-20T03:49:24;5.80;99.90
20345;DHT22;10330;48.816;9.278;2023-12-20T03:51:51;5.80;99.90
20345;DHT22;10330;48.816;9.278;2023-12-20T03:54:17;5.80;99.90
20345;DHT22;10330;48.816;9.278;2023-12-20T03:56:43;5.80;99.90
20345;DHT22;10330;48.816;9.278;2023-12-20T03:59:09;5.80;99.90
20345;DHT22;10330;48.816;9.278;2023-12-20T04:01:35;5.70;99.90
20345;DHT22;10330;48.816;9.278;2023-12-20T04:04:02;5.70;99.90
20345;DHT22;10330;48.816;9.278;2023-12-20T04:06:28;5.70;99.90
20345;DHT22;10330;48.816;9.278;2023-12-20T04:08:54;5.70;99.90
20345;DHT22;10330;48.816;9.278;2023-12-20T04:11:20;5.70;99.90
20345;DHT22;10330;48.816;9.278;2023-12-20T04:13:46;5.70;99.90
20345;DHT22;10330;48.816;9.278;2023-12-20T04:16:12;5.70;99.90
20345;DHT22;10330;48.816;9.278;2023-12-20T04:18:39;5.60;99.90
20345;DHT22;10330;48.816;9.278;2023-12-20T04:21:05;5.60;99.90
20345;DHT22;10330;48.816;9.278;2023-12-20T04:23:31;5.60;99.90
20345;DHT22;10330;48.816;9.278;2023-12-20T04:25:57;5.60;99.90
20345;DHT22;10330;48.816;9.278;2023-12-20T04:28:23;5.60;99.90
20345;DHT22;10330;48.816;9.278;2023-12-20T04:30:50;5.60;99.90
20345;DHT22;10330;48.816;9.278;2023-12-20T04:33:16;5.50;99.90
20345;DHT22;10330;48.816;9.278;2023-12-20T04:35:42;5.50;99.90
20345;DHT22;10330;48.816;9.278;2023-12-20T04:38:09;5.60;99.90
20345;DHT22;10330;48.816;9.278;2023-12-20T04:40:35;5.60;99.90
20345;DHT22;10330;48.816;9.278;2023-12-20T04:43:01;5.60;99.90
20345;DHT22;10330;48.816;9.278;2023-12-20T04:45:45;5.50;99.90
20345;DHT22;10330;48.816;9.278;2023-12-20T04:48:12;5.50;99.90
20345;DHT22;10330;48.816;9.278;2023-12-20T04:50:38;5.50;99.90
20345;DHT22;10330;48.816;9.278;2023-12-20T04:53:04;5.50;99.90
20345;DHT22;10330;48.816;9.278;2023-12-20T04:55:30;5.50;99.90
20345;DHT22;10330;48.816;9.278;2023-12-20T04:57:56;5.50;99.90
20345;DHT22;10330;48.816;9.278;2023-12-20T05:00:23;5.50;99.90
20345;DHT22;10330;48.816;9.278;2023-12-20T05:02:49;5.50;99.90
20345;DHT22;10330;48.816;9.278;2023-12-20T05:05:15;5.60;99.90
20345;DHT22;10330;48.816;9.278;2023-12-20T05:07:44;5.60;99.90
20345;DHT22;10330;48.816;9.278;2023-12-20T05:10:10;5.60;99.90
20345;DHT22;10330;48.816;9.278;2023-12-20T05:12:39;5.60;99.90
20345;DHT22;10330;48.816;9.278;2023-12-20T05:15:06;5.60;99.90
20345;DHT22;10330;48.816;9.278;2023-12-20T05:17:32;5.60;99.90
20345;DHT22;10330;48.816;9.278;2023-12-20T05:19:58;5.50;99.90
20345;DHT22;10330;48.816;9.278;2023-12-20T05:22:25;5.60;99.90
20345;DHT22;10330;48.816;9.278;2023-12-20T05:24:51;5.60;99.90
20345;DHT22;10330;48.816;9.278;2023-12-20T05:27:17;5.60;99.90
20345;DHT22;10330;48.816;9.278;2023-12-20T05:29:43;5.60;99.90
20345;DHT22;10330;48.816;9.278;2023-12-20T05:32:10;5.60;99.90
20345;DHT22;10330;48.816;9.278;2023-12-20T05:34:36;5.60;99.90
20345;DHT22;10330;48.816;9.278;2023-12-20T05:37:02;5.60;99.90
20345;DHT22;10330;48.816;9.278;2023-12-20T05:39:28;5.60;99.90
20345;DHT22;10330;48.816;9.278;2023-12-20T05:41:57;5.60;99.90
20345;DHT22;10330;48.816;9.278;2023-12-20T05:44:23;5.60;99.90
20345;DHT22;10330;48.816;9.278;2023-12-20T05:46:49;5.60;99.90
20345;DHT22;10330;48.816;9.278;2023-12-20T05:49:15;5.50;99.90
20345;DHT22;10330;48.816;9.278;2023-12-20T05:51:41;5.60;99.90
20345;DHT22;10330;48.816;9.278;2023-12-20T05:54:08;5.60;99.90
20345;DHT22;10330;48.816;9.278;2023-12-20T05:56:35;5.60;99.90
20345;DHT22;10330;48.816;9.278;2023-12-20T05:59:01;5.50;99.90
20345;DHT22;10330;48.816;9.278;2023-12-20T06:01:27;5.50;99.90
20345;DHT22;10330;48.816;9.278;2023-12-20T06:03:53;5.50;99.90
20345;DHT22;10330;48.816;9.278;2023-12-20T06:06:19;5.50;99.90
20345;DHT22;10330;48.816;9.278;2023-12-20T06:08:45;5.50;99.90
20345;DHT22;10330;48.816;9.278;2023-12-20T06:11:12;5.50;99.90
20345;DHT22;10330;48.816;9.278;2023-12-20T06:13:39;5.40;99.90
20345;DHT22;10330;48.816;9.278;2023-12-20T06:16:06;5.50;99.90
20345;DHT22;10330;48.816;9.278;2023-12-20T06:18:35;5.50;99.90
20345;DHT22;10330;48.816;9.278;2023-12-20T06:21:03;5.50;99.90
20345;DHT22;10330;48.816;9.278;2023-12-20T06:23:29;5.50;99.90
20345;DHT22;10330;48.816;9.278;2023-12-20T06:25:55;5.50;99.90
20345;DHT22;10330;48.816;9.278;2023-12-20T06:28:21;5.50;99.90
20345;DHT22;10330;48.816;9.278;2023-12-20T06:30:47;5.50;99.90
20345;DHT22;10330;48.816;9.278;2023-12-20T06:33:15;5.50;99.90
20345;DHT22;10330;48.816;9.278;2023-12-20T06:35:41;5.50;99.90
20345;DHT22;10330;48.816;9.278;2023-12-20T06:38:08;5.50;99.90
20345;DHT22;10330;48.816;9.278;2023-12-20T06:40:35;5.50;99.90
20345;DHT22;10330;48.816;9.278;2023-12-20T06:43:01;5.40;99.90
20345;DHT22;10330;48.816;9.278;2023-12-20T06:45:30;5.50;99.90
20345;DHT22;10330;48.816;9.278;2023-12-20T06:47:56;5.40;99.90
20345;DHT22;10330;48.816;9.278;2023-12-20T06:50:22;5.40;99.90
20345;DHT22;10330;48.816;9.278;2023-12-20T06:52:48;5.40;99.90
20345;DHT22;10330;48.816;9.278;2023-12-20T06:55:15;5.40;99.90
20345;DHT22;10330;48.816;9.278;2023-12-20T06:57:41;5.40;99.90
20345;DHT22;10330;48.816;9.278;2023-12-20T07:00:07;5.40;99.90
20345;DHT22;10330;48.816;9.278;2023-12-20T07:02:34;5.40;99.90
20345;DHT22;10330;48.816;9.278;2023-12-20T07:05:00;5.40;99.90
20345;DHT22;10330;48.816;9.278;2023-12-20T07:07:26;5.40;99.90
20345;DHT22;10330;48.816;9.278;2023-12-20T07:09:53;5.40;99.90
20345;DHT22;10330;48.816;9.278;2023-12-20T07:12:19;5.50;99.90
20345;DHT22;10330;48.816;9.278;2023-12-20T07:14:46;5.60;99.90
20345;DHT22;10330;48.816;9.278;2023-12-20T07:17:12;5.60;99.90
20345;DHT22;10330;48.816;9.278;2023-12-20T07:19:41;5.60;99.90
20345;DHT22;10330;48.816;9.278;2023-12-20T07:22:07;5.60;99.90
20345;DHT22;10330;48.816;9.278;2023-12-20T07:24:34;5.70;99.90
20345;DHT22;10330;48.816;9.278;2023-12-20T07:27:00;5.80;99.90
20345;DHT22;10330;48.816;9.278;2023-12-20T07:29:27;5.70;99.90
20345;DHT22;10330;48.816;9.278;2023-12-20T07:31:53;5.70;99.90
20345;DHT22;10330;48.816;9.278;2023-12-20T07:34:20;5.80;99.90
20345;DHT22;10330;48.816;9.278;2023-12-20T07:36:46;5.70;99.90
20345;DHT22;10330;48.816;9.278;2023-12-20T07:39:14;5.80;99.90
20345;DHT22;10330;48.816;9.278;2023-12-20T07:41:40;5.70;99.90
20345;DHT22;10330;48.816;9.278;2023-12-20T07:44:06;5.80;99.90
20345;DHT22;10330;48.816;9.278;2023-12-20T07:46:33;5.80;99.90
20345;DHT22;10330;48.816;9.278;2023-12-20T07:48:59;5.70;99.90
20345;DHT22;10330;48.816;9.278;2023-12-20T07:51:25;5.90;99.90
20345;DHT22;10330;48.816;9.278;2023-12-20T07:53:52;5.70;99.90
20345;DHT22;10330;48.816;9.278;2023-12-20T07:56:19;5.80;99.90
20345;DHT22;10330;48.816;9.278;2023-12-20T07:58:45;5.90;99.90
20345;DHT22;10330;48.816;9.278;2023-12-20T08:01:12;5.80;99.90
20345;DHT22;10330;48.816;9.278;2023-12-20T08:03:38;5.70;99.90
20345;DHT22;10330;48.816;9.278;2023-12-20T08:06:05;5.90;99.90
20345;DHT22;10330;48.816;9.278;2023-12-20T08:08:31;5.70;99.90
20345;DHT22;10330;48.816;9.278;2023-12-20T08:10:57;5.70;99.90
20345;DHT22;10330;48.816;9.278;2023-12-20T08:13:26;5.60;99.90
20345;DHT22;10330;48.816;9.278;2023-12-20T08:15:53;5.60;99.90
20345;DHT22;10330;48.816;9.278;2023-12-20T08:18:19;5.60;99.90
20345;DHT22;10330;48.816;9.278;2023-12-20T08:20:46;5.60;99.90
20345;DHT22;10330;48.816;9.278;2023-12-20T08:23:13;5.60;99.90
20345;DHT22;10330;48.816;9.278;2023-12-20T08:25:39;5.50;99.90
20345;DHT22;10330;48.816;9.278;2023-12-20T08:28:05;5.50;99.90
20345;DHT22;10330;48.816;9.278;2023-12-20T08:30:32;5.50;99.90
20345;DHT22;10330;48.816;9.278;2023-12-20T08:33:01;5.50;99.90
20345;DHT22;10330;48.816;9.278;2023-12-20T08:35:28;5.30;99.90
20345;DHT22;10330;48.816;9.278;2023-12-20T08:37:54;5.30;99.90
20345;DHT22;10330;48.816;9.278;2023-12-20T08:40:22;5.30;99.90
20345;DHT22;10330;48.816;9.278;2023-12-20T08:42:49;5.20;99.90
20345;DHT22;10330;48.816;9.278;2023-12-20T08:45:15;5.20;99.90
20345;DHT22;10330;48.816;9.278;2023-12-20T08:47:41;5.20;99.90
20345;DHT22;10330;48.816;9.278;2023-12-20T08:50:10;5.20;99.90
20345;DHT22;10330;48.816;9.278;2023-12-20T08:52:36;5.20;99.90
20345;DHT22;10330;48.816;9.278;2023-12-20T08:55:03;5.20;99.90
20345;DHT22;10330;48.816;9.278;2023-12-20T08:57:30;5.10;99.90
20345;DHT22;10330;48.816;9.278;2023-12-20T08:59:58;5.10;99.90
20345;DHT22;10330;48.816;9.278;2023-12-20T09:02:24;5.20;99.90
20345;DHT22;10330;48.816;9.278;2023-12-20T09:04:50;5.20;99.90
20345;DHT22;10330;48.816;9.278;2023-12-20T09:07:23;5.20;99.90
20345;DHT22;10330;48.816;9.278;2023-12-20T09:09:50;5.30;99.90
20345;DHT22;10330;48.816;9.278;2023-12-20T09:12:20;5.40;99.90
20345;DHT22;10330;48.816;9.278;2023-12-20T09:14:46;5.40;99.90
20345;DHT22;10330;48.816;9.278;2023-12-20T09:17:13;5.50;99.90
20345;DHT22;10330;48.816;9.278;2023-12-20T09:19:39;5.40;99.90
20345;DHT22;10330;48.816;9.278;2023-12-20T09:22:06;5.50;99.90
20345;DHT22;10330;48.816;9.278;2023-12-20T09:24:32;5.60;99.90
20345;DHT22;10330;48.816;9.278;2023-12-20T09:26:58;5.60;99.90
20345;DHT22;10330;48.816;9.278;2023-12-20T09:29:24;5.60;99.90
20345;DHT22;10330;48.816;9.278;2023-12-20T09:31:51;5.60;99.90
20345;DHT22;10330;48.816;9.278;2023-12-20T09:34:20;5.70;99.90
20345;DHT22;10330;48.816;9.278;2023-12-20T09:36:47;5.70;99.90
20345;DHT22;10330;48.816;9.278;2023-12-20T09:39:14;5.70;99.90
20345;DHT22;10330;48.816;9.278;2023-12-20T09:41:44;5.70;99.90
20345;DHT22;10330;48.816;9.278;2023-12-20T09:44:15;5.80;99.90
20345;DHT22;10330;48.816;9.278;2023-12-20T09:46:45;5.80;99.90
20345;DHT22;10330;48.816;9.278;2023-12-20T09:49:17;5.90;99.90
20345;DHT22;10330;48.816;9.278;2023-12-20T09:51:46;6.00;99.90
20345;DHT22;10330;48.816;9.278;2023-12-20T09:54:19;6.00;99.90
20345;DHT22;10330;48.816;9.278;2023-12-20T09:56:46;6.10;99.90
20345;DHT22;10330;48.816;9.278;2023-12-20T09:59:12;6.10;99.90
20345;DHT22;10330;48.816;9.278;2023-12-20T10:01:40;6.20;99.90
20345;DHT22;10330;48.816;9.278;2023-12-20T10:04:08;6.30;99.90
20345;DHT22;10330;48.816;9.278;2023-12-20T10:06:42;6.30;99.90
20345;DHT22;10330;48.816;9.278;2023-12-20T10:09:10;6.40;99.90
20345;DHT22;10330;48.816;9.278;2023-12-20T10:11:37;6.50;99.90
20345;DHT22;10330;48.816;9.278;2023-12-20T10:14:04;6.50;99.90
20345;DHT22;10330;48.816;9.278;2023-12-20T10:16:32;6.70;99.90
20345;DHT22;10330;48.816;9.278;2023-12-20T10:19:00;6.80;99.90
20345;DHT22;10330;48.816;9.278;2023-12-20T10:21:27;7.00;99.90
20345;DHT22;10330;48.816;9.278;2023-12-20T10:23:54;7.00;99.90
20345;DHT22;10330;48.816;9.278;2023-12-20T10:26:21;7.00;99.90
20345;DHT22;10330;48.816;9.278;2023-12-20T10:28:55;7.10;99.90
20345;DHT22;10330;48.816;9.278;2023-12-20T10:31:31;6.90;99.90
20345;DHT22;10330;48.816;9.278;2023-12-20T10:33:59;6.80;99.90
20345;DHT22;10330;48.816;9.278;2023-12-20T10:36:27;6.80;99.90
20345;DHT22;10330;48.816;9.278;2023-12-20T10:38:57;7.00;99.90
20345;DHT22;10330;48.816;9.278;2023-12-20T10:41:33;7.00;99.90
20345;DHT22;10330;48.816;9.278;2023-12-20T10:44:03;7.30;99.90
20345;DHT22;10330;48.816;9.278;2023-12-20T10:46:31;7.40;99.90
20345;DHT22;10330;48.816;9.278;2023-12-20T10:48:59;7.00;99.90
20345;DHT22;10330;48.816;9.278;2023-12-20T10:51:28;6.80;99.90
20345;DHT22;10330;48.816;9.278;2023-12-20T10:53:57;6.50;99.90
20345;DHT22;10330;48.816;9.278;2023-12-20T10:56:23;6.50;99.90
20345;DHT22;10330;48.816;9.278;2023-12-20T10:58:50;6.40;99.90
20345;DHT22;10330;48.816;9.278;2023-12-20T11:01:17;6.40;99.90
20345;DHT22;10330;48.816;9.278;2023-12-20T11:03:52;6.30;99.90
20345;DHT22;10330;48.816;9.278;2023-12-20T11:06:26;6.40;99.90
20345;DHT22;10330;48.816;9.278;2023-12-20T11:09:17;6.40;99.90
20345;DHT22;10330;48.816;9.278;2023-12-20T11:12:07;6.90;99.90
20345;DHT22;10330;48.816;9.278;2023-12-20T11:14:46;7.10;99.90
20345;DHT22;10330;48.816;9.278;2023-12-20T11:17:13;7.40;99.90
20345;DHT22;10330;48.816;9.278;2023-12-20T11:20:04;7.60;99.90
20345;DHT22;10330;48.816;9.278;2023-12-20T11:22:32;7.50;99.90
20345;DHT22;10330;48.816;9.278;2023-12-20T11:25:06;7.20;99.90
20345;DHT22;10330;48.816;9.278;2023-12-20T11:27:36;6.90;99.90
20345;DHT22;10330;48.816;9.278;2023-12-20T11:30:04;6.70;99.90
20345;DHT22;10330;48.816;9.278;2023-12-20T11:32:36;6.60;99.90
20345;DHT22;10330;48.816;9.278;2023-12-20T11:37:38;6.50;99.90
20345;DHT22;10330;48.816;9.278;2023-12-20T11:40:13;6.50;99.90
20345;DHT22;10330;48.816;9.278;2023-12-20T11:42:58;6.40;99.90
20345;DHT22;10330;48.816;9.278;2023-12-20T11:45:25;6.30;99.90
20345;DHT22;10330;48.816;9.278;2023-12-20T11:47:52;6.20;99.90
20345;DHT22;10330;48.816;9.278;2023-12-20T11:50:21;6.30;99.90
20345;DHT22;10330;48.816;9.278;2023-12-20T11:52:48;6.30;99.90
20345;DHT22;10330;48.816;9.278;2023-12-20T11:55:15;6.30;99.90
20345;DHT22;10330;48.816;9.278;2023-12-20T11:57:42;6.20;99.90
20345;DHT22;10330;48.816;9.278;2023-12-20T12:00:09;6.20;99.90
20345;DHT22;10330;48.816;9.278;2023-12-20T12:02:39;6.20;99.90
20345;DHT22;10330;48.816;9.278;2023-12-20T12:05:05;6.10;99.90
20345;DHT22;10330;48.816;9.278;2023-12-20T12:07:33;6.10;99.90
20345;DHT22;10330;48.816;9.278;2023-12-20T12:09:59;6.10;99.90
20345;DHT22;10330;48.816;9.278;2023-12-20T12:12:25;6.10;99.90
20345;DHT22;10330;48.816;9.278;2023-12-20T12:14:54;6.20;99.90
20345;DHT22;10330;48.816;9.278;2023-12-20T12:17:20;6.20;99.90
20345;DHT22;10330;48.816;9.278;2023-12-20T12:19:46;6.20;99.90
20345;DHT22;10330;48.816;9.278;2023-12-20T12:22:16;6.20;99.90
20345;DHT22;10330;48.816;9.278;2023-12-20T12:24:43;6.20;99.90
20345;DHT22;10330;48.816;9.278;2023-12-20T12:27:11;6.40;99.90
20345;DHT22;10330;48.816;9.278;2023-12-20T12:29:37;6.40;99.90
20345;DHT22;10330;48.816;9.278;2023-12-20T12:32:07;6.40;99.90
20345;DHT22;10330;48.816;9.278;2023-12-20T12:34:37;6.40;99.90
20345;DHT22;10330;48.816;9.278;2023-12-20T12:37:03;6.40;99.90
20345;DHT22;10330;48.816;9.278;2023-12-20T12:39:30;6.40;99.90
20345;DHT22;10330;48.816;9.278;2023-12-20T12:41:56;6.50;99.90
20345;DHT22;10330;48.816;9.278;2023-12-20T12:44:26;6.80;99.90
20345;DHT22;10330;48.816;9.278;2023-12-20T12:46:52;7.40;99.90
20345;DHT22;10330;48.816;9.278;2023-12-20T12:49:20;7.80;99.90
20345;DHT22;10330;48.816;9.278;2023-12-20T12:51:51;8.00;99.90
20345;DHT22;10330;48.816;9.278;2023-12-20T12:54:17;8.30;99.90
20345;DHT22;10330;48.816;9.278;2023-12-20T12:56:44;8.00;99.90
20345;DHT22;10330;48.816;9.278;2023-12-20T12:59:11;7.80;99.90
20345;DHT22;10330;48.816;9.278;2023-12-20T13:01:37;7.50;99.90
20345;DHT22;10330;48.816;9.278;2023-12-20T13:04:04;7.30;99.90
20345;DHT22;10330;48.816;9.278;2023-12-20T13:06:39;7.10;99.90
20345;DHT22;10330;48.816;9.278;2023-12-20T13:09:08;7.00;99.90
20345;DHT22;10330;48.816;9.278;2023-12-20T13:11:36;7.00;99.90
20345;DHT22;10330;48.816;9.278;2023-12-20T13:14:02;6.80;99.90
20345;DHT22;10330;48.816;9.278;2023-12-20T13:16:29;6.80;99.90
20345;DHT22;10330;48.816;9.278;2023-12-20T13:18:56;6.70;99.90
20345;DHT22;10330;48.816;9.278;2023-12-20T13:21:22;6.80;99.90
20345;DHT22;10330;48.816;9.278;2023-12-20T13:23:48;6.70;99.90
20345;DHT22;10330;48.816;9.278;2023-12-20T13:26:14;6.70;99.90
20345;DHT22;10330;48.816;9.278;2023-12-20T13:28:41;6.70;99.90
20345;DHT22;10330;48.816;9.278;2023-12-20T13:31:08;6.70;99.90
20345;DHT22;10330;48.816;9.278;2023-12-20T13:33:34;7.10;99.90
20345;DHT22;10330;48.816;9.278;2023-12-20T13:36:00;7.30;99.90
20345;DHT22;10330;48.816;9.278;2023-12-20T13:38:26;7.40;99.90
20345;DHT22;10330;48.816;9.278;2023-12-20T13:40:52;7.30;99.90
20345;DHT22;10330;48.816;9.278;2023-12-20T13:43:18;7.20;99.90
20345;DHT22;10330;48.816;9.278;2023-12-20T13:45:47;7.10;99.90
20345;DHT22;10330;48.816;9.278;2023-12-20T13:48:13;6.90;99.90
20345;DHT22;10330;48.816;9.278;2023-12-20T13:50:40;6.90;99.90
20345;DHT22;10330;48.816;9.278;2023-12-20T13:53:06;6.90;99.90
20345;DHT22;10330;48.816;9.278;2023-12-20T13:55:32;6.80;99.90
20345;DHT22;10330;48.816;9.278;2023-12-20T13:57:59;6.70;99.90
20345;DHT22;10330;48.816;9.278;2023-12-20T14:00:25;6.60;99.90
20345;DHT22;10330;48.816;9.278;2023-12-20T14:02:51;6.60;99.90
20345;DHT22;10330;48.816;9.278;2023-12-20T14:05:17;6.50;99.90
20345;DHT22;10330;48.816;9.278;2023-12-20T14:07:44;6.50;99.90
20345;DHT22;10330;48.816;9.278;2023-12-20T14:10:14;6.40;99.90
20345;DHT22;10330;48.816;9.278;2023-12-20T14:12:40;6.40;99.90
20345;DHT22;10330;48.816;9.278;2023-12-20T14:15:07;6.30;99.90
20345;DHT22;10330;48.816;9.278;2023-12-20T14:17:40;6.30;99.90
20345;DHT22;10330;48.816;9.278;2023-12-20T14:20:08;6.30;99.90
20345;DHT22;10330;48.816;9.278;2023-12-20T14:22:35;6.30;99.90
20345;DHT22;10330;48.816;9.278;2023-12-20T14:25:02;6.30;99.90
20345;DHT22;10330;48.816;9.278;2023-12-20T14:27:28;6.20;99.90
20345;DHT22;10330;48.816;9.278;2023-12-20T14:29:55;6.10;99.90
20345;DHT22;10330;48.816;9.278;2023-12-20T14:32:21;6.10;99.90
20345;DHT22;10330;48.816;9.278;2023-12-20T14:34:47;6.10;99.90
20345;DHT22;10330;48.816;9.278;2023-12-20T14:37:17;6.10;99.90
20345;DHT22;10330;48.816;9.278;2023-12-20T14:39:43;6.00;99.90
20345;DHT22;10330;48.816;9.278;2023-12-20T14:42:10;5.90;99.90
20345;DHT22;10330;48.816;9.278;2023-12-20T14:44:42;5.90;99.90
20345;DHT22;10330;48.816;9.278;2023-12-20T14:47:12;6.00;99.90
20345;DHT22;10330;48.816;9.278;2023-12-20T14:49:40;5.90;99.90
20345;DHT22;10330;48.816;9.278;2023-12-20T14:52:07;5.90;99.90
20345;DHT22;10330;48.816;9.278;2023-12-20T14:54:33;5.90;99.90
20345;DHT22;10330;48.816;9.278;2023-12-20T14:57:00;5.90;99.90
20345;DHT22;10330;48.816;9.278;2023-12-20T14:59:26;5.90;99.90
20345;DHT22;10330;48.816;9.278;2023-12-20T15:01:52;5.90;99.90
20345;DHT22;10330;48.816;9.278;2023-12-20T15:04:18;5.80;99.90
20345;DHT22;10330;48.816;9.278;2023-12-20T15:06:45;5.80;99.90
20345;DHT22;10330;48.816;9.278;2023-12-20T15:09:11;5.80;99.90
20345;DHT22;10330;48.816;9.278;2023-12-20T15:11:39;5.80;99.90
20345;DHT22;10330;48.816;9.278;2023-12-20T15:14:06;5.70;99.90
20345;DHT22;10330;48.816;9.278;2023-12-20T15:16:35;5.70;99.90
20345;DHT22;10330;48.816;9.278;2023-12-20T15:19:01;5.70;99.90
20345;DHT22;10330;48.816;9.278;2023-12-20T15:21:27;5.70;99.90
20345;DHT22;10330;48.816;9.278;2023-12-20T15:23:58;5.70;99.90
20345;DHT22;10330;48.816;9.278;2023-12-20T15:26:32;5.70;99.90
20345;DHT22;10330;48.816;9.278;2023-12-20T15:28:59;5.70;99.90
20345;DHT22;10330;48.816;9.278;2023-12-20T15:31:27;5.70;99.90
20345;DHT22;10330;48.816;9.278;2023-12-20T15:33:53;5.70;99.90
20345;DHT22;10330;48.816;9.278;2023-12-20T15:36:19;5.70;99.90
20345;DHT22;10330;48.816;9.278;2023-12-20T15:38:46;5.70;99.90
20345;DHT22;10330;48.816;9.278;2023-12-20T15:41:22;5.70;99.90
20345;DHT22;10330;48.816;9.278;2023-12-20T15:43:49;5.70;99.90
20345;DHT22;10330;48.816;9.278;2023-12-20T15:46:16;5.70;99.90
20345;DHT22;10330;48.816;9.278;2023-12-20T15:48:42;5.70;99.90